createdAt,value
2018-02-01T00:02:27.151Z,7.30
2018-02-01T00:07:29.967Z,7.30
2018-02-01T00:12:33.555Z,7.30
2018-02-01T00:17:36.272Z,7.30
2018-02-01T00:22:40.103Z,7.30
2018-02-01T00:27:42.960Z,7.20
2018-02-01T00:32:46.130Z,7.30
2018-02-01T00:37:48.768Z,7.20
2018-02-01T00:42:52.416Z,7.30
2018-02-01T00:47:55.167Z,7.20
2018-02-01T00:52:59.305Z,7.20
2018-02-01T00:58:01.980Z,7.20
2018-02-01T01:03:05.681Z,7.10
2018-02-01T01:08:08.291Z,7.10
2018-02-01T01:13:11.681Z,7.10
2018-02-01T01:18:14.345Z,7.00
2018-02-01T01:23:17.335Z,7.00
2018-02-01T01:28:20.724Z,7.00
2018-02-01T01:33:23.439Z,7.00
2018-02-01T01:38:26.037Z,7.00
2018-02-01T01:43:29.491Z,6.90
2018-02-01T01:48:32.108Z,6.80
2018-02-01T01:53:35.630Z,6.90
2018-02-01T01:58:38.235Z,6.90
2018-02-01T02:03:41.000Z,6.90
2018-02-01T02:08:43.744Z,6.90
2018-02-01T02:13:47.117Z,6.80
2018-02-01T02:18:50.541Z,6.60
2018-02-01T02:23:53.857Z,6.60
2018-02-01T02:28:56.498Z,6.70
2018-02-01T02:33:59.470Z,6.60
2018-02-01T02:39:02.154Z,6.50
2018-02-01T02:44:05.993Z,6.30
2018-02-01T02:49:08.628Z,6.30
2018-02-01T02:54:11.811Z,6.10
2018-02-01T02:59:14.456Z,6.10
2018-02-01T03:04:17.465Z,6.00
2018-02-01T03:09:20.080Z,6.00
2018-02-01T03:14:24.179Z,5.90
2018-02-01T03:19:26.848Z,5.90
2018-02-01T03:24:31.112Z,6.00
2018-02-01T03:29:34.523Z,5.90
2018-02-01T03:34:37.594Z,5.80
2018-02-01T03:39:40.995Z,5.70
2018-02-01T03:44:44.971Z,5.70
2018-02-01T03:49:47.575Z,5.70
2018-02-01T03:54:50.791Z,5.60
2018-02-01T03:59:53.422Z,5.60
2018-02-01T04:04:56.045Z,5.50
2018-02-01T04:09:59.426Z,5.30
2018-02-01T04:15:03.359Z,5.20
2018-02-01T04:20:05.978Z,5.10
2018-02-01T04:25:09.716Z,4.90
2018-02-01T04:30:12.307Z,4.90
2018-02-01T04:35:16.637Z,4.90
2018-02-01T04:40:20.033Z,4.90
2018-02-01T04:45:23.411Z,4.90
2018-02-01T04:50:26.043Z,4.90
2018-02-01T04:55:29.512Z,4.90
2018-02-01T05:00:32.152Z,4.90
2018-02-01T05:05:35.337Z,4.80
2018-02-01T05:10:37.950Z,4.80
2018-02-01T05:15:41.515Z,4.80
2018-02-01T05:20:44.878Z,4.80
2018-02-01T05:25:47.526Z,4.80
2018-02-01T07:01:24.302Z,4.60
2018-02-01T07:06:27.724Z,4.10
2018-02-01T07:11:32.004Z,4.10
2018-02-01T07:16:34.586Z,4.10
2018-02-01T07:21:37.845Z,4.40
2018-02-01T07:26:40.476Z,4.50
2018-02-01T07:31:43.878Z,4.60
2018-02-01T07:36:47.267Z,4.70
2018-02-01T07:41:50.838Z,4.70
2018-02-01T07:46:59.022Z,4.70
2018-02-01T07:52:01.900Z,4.60
2018-02-01T07:57:04.542Z,4.50
2018-02-01T08:02:08.447Z,4.50
2018-02-01T08:07:11.050Z,4.50
2018-02-01T08:12:15.417Z,4.50
2018-02-01T08:17:18.868Z,4.50
2018-02-01T08:22:21.560Z,4.50
2018-02-01T08:27:24.218Z,4.60
2018-02-01T08:32:28.617Z,4.70
2018-02-01T08:37:31.970Z,4.80
2018-02-01T08:42:35.825Z,5.10
2018-02-01T08:47:39.229Z,5.10
2018-02-01T08:52:42.213Z,5.10
2018-02-01T08:57:44.835Z,4.90
2018-02-01T09:02:48.489Z,5.20
2018-02-01T09:07:51.111Z,5.20
2018-02-01T09:12:53.723Z,5.30
2018-02-01T09:17:56.350Z,5.30
2018-02-01T09:22:59.605Z,5.40
2018-02-01T09:28:02.223Z,6.00
2018-02-01T09:33:05.814Z,5.90
2018-02-01T09:38:08.440Z,6.20
2018-02-01T09:43:12.021Z,6.20
2018-02-01T09:48:15.420Z,6.20
2018-02-01T09:53:19.411Z,5.80
2018-02-01T09:58:22.790Z,5.90
2018-02-01T10:03:25.404Z,5.80
2018-02-01T10:08:28.027Z,6.10
2018-02-01T10:13:31.296Z,6.00
2018-02-01T10:18:34.684Z,6.10
2018-02-01T10:23:37.543Z,6.10
2018-02-01T10:28:40.159Z,5.70
2018-02-01T10:33:42.814Z,6.10
2018-02-01T10:38:46.196Z,6.30
2018-02-01T10:43:49.750Z,6.30
2018-02-01T10:48:53.140Z,6.30
2018-02-01T10:53:55.934Z,6.30
2018-02-01T10:58:58.563Z,6.20
2018-02-01T11:04:02.097Z,6.20
2018-02-01T11:09:04.747Z,6.10
2018-02-01T11:14:08.018Z,6.40
2018-02-01T11:19:10.603Z,6.60
2018-02-01T11:24:13.830Z,6.80
2018-02-01T11:29:16.447Z,6.50
2018-02-01T11:34:19.621Z,6.40
2018-02-01T11:39:23.011Z,6.10
2018-02-01T11:44:25.962Z,6.10
2018-02-01T11:49:28.552Z,6.20
2018-02-01T11:54:31.924Z,5.70
2018-02-01T11:59:34.541Z,6.20
2018-02-01T12:04:38.683Z,6.20
2018-02-01T12:09:42.082Z,5.90
2018-02-01T12:14:44.724Z,5.90
2018-02-01T12:19:47.347Z,5.70
2018-02-01T12:24:50.731Z,6.10
2018-02-01T12:29:53.359Z,6.10
2018-02-01T12:34:56.658Z,6.00
2018-02-01T12:39:59.284Z,5.90
2018-02-01T12:45:02.671Z,5.70
2018-02-01T12:50:05.311Z,5.80
2018-02-01T12:55:08.052Z,6.00
2018-02-01T13:00:10.666Z,5.90
2018-02-01T13:05:14.427Z,5.80
2018-02-01T13:10:17.050Z,5.90
2018-02-01T13:15:20.487Z,5.70
2018-02-01T13:20:23.905Z,5.70
2018-02-01T13:25:27.763Z,5.70
2018-02-01T13:36:36.954Z,5.60
2018-02-01T13:41:39.590Z,5.60
2018-02-01T13:46:42.960Z,5.60
2018-02-01T13:51:45.583Z,5.60
2018-02-01T13:56:49.082Z,5.60
2018-02-01T14:01:51.699Z,5.60
2018-02-01T14:06:55.158Z,5.50
2018-02-01T14:11:57.776Z,5.50
2018-02-01T14:17:01.403Z,5.40
2018-02-01T14:22:04.028Z,5.40
2018-02-01T14:27:07.312Z,5.40
2018-02-01T14:32:10.687Z,5.30
2018-02-01T14:37:14.435Z,5.30
2018-02-01T14:42:17.824Z,5.30
2018-02-01T14:47:20.489Z,5.20
2018-02-01T14:52:23.112Z,5.20
2018-02-01T14:57:26.522Z,5.20
2018-02-01T15:02:29.140Z,5.20
2018-02-01T15:07:32.512Z,5.10
2018-02-01T15:12:35.122Z,5.10
2018-02-01T15:17:38.589Z,5.10
2018-02-01T15:22:41.215Z,5.00
2018-02-01T15:27:44.456Z,5.00
2018-02-01T15:32:47.094Z,4.90
2018-02-01T15:37:49.766Z,4.90
2018-02-01T15:42:53.146Z,4.90
2018-02-01T15:47:56.723Z,4.90
2018-02-01T15:52:59.347Z,4.90
2018-02-01T15:58:03.185Z,4.80
2018-02-01T16:03:06.581Z,4.80
2018-02-01T16:08:10.055Z,4.70
2018-02-01T16:13:12.678Z,4.70
2018-02-01T16:18:16.041Z,4.50
2018-02-01T16:23:18.665Z,4.50
2018-02-01T16:28:22.108Z,4.50
2018-02-01T16:33:25.615Z,4.50
2018-02-01T16:38:28.948Z,4.40
2018-02-01T16:43:33.460Z,4.40
2018-02-01T16:48:37.500Z,4.40
2018-02-01T16:53:40.240Z,4.20
2018-02-01T16:58:44.590Z,3.70
2018-02-01T17:03:48.008Z,3.60
2018-02-01T17:08:51.839Z,3.40
2018-02-01T17:13:55.215Z,3.80
2018-02-01T17:18:58.423Z,3.70
2018-02-01T17:24:01.825Z,3.50
2018-02-01T17:29:04.918Z,3.50
2018-02-01T17:34:07.667Z,3.70
2018-02-01T17:39:12.036Z,3.50
2018-02-01T17:44:15.561Z,3.40
2018-02-01T17:49:19.900Z,3.50
2018-02-01T17:54:23.290Z,3.50
2018-02-01T17:59:26.050Z,3.50
2018-02-01T18:04:28.794Z,3.30
2018-02-01T18:09:32.591Z,3.40
2018-02-01T18:14:35.438Z,3.50
2018-02-01T18:19:39.081Z,3.50
2018-02-01T18:24:41.784Z,3.50
2018-02-01T18:29:44.994Z,3.40
2018-02-01T18:34:47.658Z,3.40
2018-02-01T18:39:50.531Z,3.40
2018-02-01T18:44:53.278Z,3.50
2018-02-01T18:49:56.334Z,3.40
2018-02-01T18:54:58.973Z,3.30
2018-02-01T19:00:02.162Z,3.20
2018-02-01T19:05:04.825Z,3.10
2018-02-01T19:10:08.904Z,3.10
2018-02-01T19:15:11.745Z,3.00
2018-02-01T19:20:15.276Z,2.90
2018-02-01T19:25:17.983Z,2.80
2018-02-01T19:30:21.415Z,2.90
2018-02-01T19:35:24.061Z,2.80
2018-02-01T19:40:26.707Z,2.70
2018-02-01T19:45:29.459Z,2.80
2018-02-01T19:50:32.944Z,2.90
2018-02-01T19:55:35.729Z,2.80
2018-02-01T20:00:38.507Z,2.90
2018-02-01T20:05:41.332Z,2.80
2018-02-01T20:10:44.093Z,2.90
2018-02-01T20:15:47.622Z,2.80
2018-02-01T20:20:51.666Z,2.70
2018-02-01T20:25:54.359Z,2.70
2018-02-01T20:30:58.230Z,2.70
2018-02-01T20:36:01.830Z,2.60
2018-02-01T20:41:05.353Z,2.60
2018-02-01T20:46:08.103Z,2.50
2018-02-01T20:51:11.388Z,2.60
2018-02-01T20:56:14.091Z,2.60
2018-02-01T21:01:16.924Z,2.50
2018-02-01T21:06:19.708Z,2.50
2018-02-01T21:11:23.778Z,2.50
2018-02-01T21:16:27.235Z,2.40
2018-02-01T21:21:30.273Z,2.40
2018-02-01T21:26:32.937Z,2.40
2018-02-01T21:31:36.448Z,2.30
2018-02-01T21:36:39.109Z,2.30
2018-02-01T21:41:41.829Z,2.30
2018-02-01T21:46:45.236Z,2.40
2018-02-01T21:51:48.254Z,2.30
2018-02-01T21:56:51.821Z,2.20
2018-02-01T22:01:55.723Z,2.20
2018-02-01T22:06:58.406Z,2.20
2018-02-01T22:12:01.860Z,2.10
2018-02-01T22:17:04.481Z,2.00
2018-02-01T22:22:07.255Z,2.00
2018-02-01T22:27:09.907Z,1.90
2018-02-01T22:32:14.207Z,1.90
2018-02-01T22:37:16.830Z,1.90
2018-02-01T22:42:19.749Z,1.90
2018-02-01T22:47:23.212Z,1.90
2018-02-01T22:52:26.010Z,1.90
2018-02-01T22:57:28.652Z,2.00
2018-02-01T23:02:32.512Z,2.10
2018-02-01T23:07:35.284Z,2.10
2018-02-01T23:12:38.600Z,2.10
2018-02-01T23:17:41.234Z,2.10
2018-02-01T23:22:44.267Z,2.00
2018-02-01T23:27:47.247Z,2.00
2018-02-01T23:32:50.679Z,1.80
2018-02-01T23:37:53.332Z,1.80
2018-02-01T23:42:56.087Z,1.80
2018-02-01T23:47:58.692Z,1.80
2018-02-01T23:53:01.661Z,1.80
2018-02-01T23:58:05.098Z,1.50
